sensor_id;sensor_type;location;lat;lon;timestamp;P1;durP1;ratioP1;P2;durP2;ratioP2
7621;SDS011;3852;52.284;8.032;2022-09-16T00:00:20;2.40;;;1.30;;
7621;SDS011;3852;52.284;8.032;2022-09-16T00:02:50;3.87;;;1.47;;
7621;SDS011;3852;52.284;8.032;2022-09-16T00:05:17;3.27;;;1.30;;
7621;SDS011;3852;52.284;8.032;2022-09-16T00:07:43;1.33;;;1.10;;
7621;SDS011;3852;52.284;8.032;2022-09-16T00:10:09;2.60;;;1.30;;
7621;SDS011;3852;52.284;8.032;2022-09-16T00:12:35;3.20;;;1.10;;
7621;SDS011;3852;52.284;8.032;2022-09-16T00:15:01;1.83;;;1.60;;
7621;SDS011;3852;52.284;8.032;2022-09-16T00:17:29;2.93;;;1.23;;
7621;SDS011;3852;52.284;8.032;2022-09-16T00:19:55;2.80;;;1.20;;
7621;SDS011;3852;52.284;8.032;2022-09-16T00:22:22;5.00;;;1.40;;
7621;SDS011;3852;52.284;8.032;2022-09-16T00:24:49;3.47;;;1.30;;
7621;SDS011;3852;52.284;8.032;2022-09-16T00:27:15;5.47;;;1.23;;
7621;SDS011;3852;52.284;8.032;2022-09-16T00:29:41;2.50;;;1.10;;
7621;SDS011;3852;52.284;8.032;2022-09-16T00:32:07;2.50;;;1.13;;
7621;SDS011;3852;52.284;8.032;2022-09-16T00:34:32;2.20;;;1.00;;
7621;SDS011;3852;52.284;8.032;2022-09-16T00:36:58;2.90;;;1.30;;
7621;SDS011;3852;52.284;8.032;2022-09-16T00:39:24;3.13;;;1.10;;
7621;SDS011;3852;52.284;8.032;2022-09-16T00:41:50;1.57;;;1.30;;
7621;SDS011;3852;52.284;8.032;2022-09-16T00:47:30;2.90;;;1.10;;
7621;SDS011;3852;52.284;8.032;2022-09-16T00:50:17;2.73;;;1.13;;
7621;SDS011;3852;52.284;8.032;2022-09-16T00:52:56;3.00;;;1.20;;
7621;SDS011;3852;52.284;8.032;2022-09-16T00:55:27;2.27;;;1.20;;
7621;SDS011;3852;52.284;8.032;2022-09-16T00:57:59;2.00;;;1.13;;
7621;SDS011;3852;52.284;8.032;2022-09-16T01:00:31;3.37;;;1.30;;
7621;SDS011;3852;52.284;8.032;2022-09-16T01:02:57;2.50;;;1.30;;
7621;SDS011;3852;52.284;8.032;2022-09-16T01:05:22;1.20;;;1.10;;
7621;SDS011;3852;52.284;8.032;2022-09-16T01:07:51;2.77;;;1.07;;
7621;SDS011;3852;52.284;8.032;2022-09-16T01:10:20;5.00;;;1.40;;
7621;SDS011;3852;52.284;8.032;2022-09-16T01:12:56;3.47;;;1.40;;
7621;SDS011;3852;52.284;8.032;2022-09-16T01:21:24;4.77;;;1.67;;
7621;SDS011;3852;52.284;8.032;2022-09-16T01:30:16;3.87;;;1.40;;
7621;SDS011;3852;52.284;8.032;2022-09-16T01:41:20;2.73;;;1.07;;
7621;SDS011;3852;52.284;8.032;2022-09-16T01:44:21;2.63;;;1.00;;
7621;SDS011;3852;52.284;8.032;2022-09-16T01:47:06;2.20;;;1.10;;
7621;SDS011;3852;52.284;8.032;2022-09-16T01:55:27;2.90;;;1.17;;
7621;SDS011;3852;52.284;8.032;2022-09-16T01:58:13;1.83;;;0.97;;
7621;SDS011;3852;52.284;8.032;2022-09-16T02:00:47;1.43;;;1.00;;
7621;SDS011;3852;52.284;8.032;2022-09-16T02:03:20;2.53;;;1.10;;
7621;SDS011;3852;52.284;8.032;2022-09-16T02:05:52;2.67;;;1.10;;
7621;SDS011;3852;52.284;8.032;2022-09-16T02:08:25;2.57;;;1.10;;
7621;SDS011;3852;52.284;8.032;2022-09-16T02:11:05;1.43;;;0.70;;
7621;SDS011;3852;52.284;8.032;2022-09-16T02:13:39;1.90;;;1.10;;
7621;SDS011;3852;52.284;8.032;2022-09-16T02:16:12;3.17;;;1.10;;
7621;SDS011;3852;52.284;8.032;2022-09-16T02:18:43;1.37;;;1.00;;
7621;SDS011;3852;52.284;8.032;2022-09-16T02:21:15;3.70;;;1.10;;
7621;SDS011;3852;52.284;8.032;2022-09-16T02:23:45;1.33;;;1.00;;
7621;SDS011;3852;52.284;8.032;2022-09-16T02:26:16;2.17;;;1.23;;
7621;SDS011;3852;52.284;8.032;2022-09-16T02:28:46;1.90;;;1.00;;
7621;SDS011;3852;52.284;8.032;2022-09-16T02:31:17;1.83;;;1.00;;
7621;SDS011;3852;52.284;8.032;2022-09-16T02:33:59;3.73;;;1.83;;
7621;SDS011;3852;52.284;8.032;2022-09-16T02:36:30;3.77;;;1.17;;
7621;SDS011;3852;52.284;8.032;2022-09-16T02:39:02;3.17;;;1.10;;
7621;SDS011;3852;52.284;8.032;2022-09-16T02:41:36;2.27;;;1.30;;
7621;SDS011;3852;52.284;8.032;2022-09-16T02:44:04;2.17;;;1.37;;
7621;SDS011;3852;52.284;8.032;2022-09-16T02:46:38;1.60;;;1.00;;
7621;SDS011;3852;52.284;8.032;2022-09-16T02:52:23;2.90;;;1.10;;
7621;SDS011;3852;52.284;8.032;2022-09-16T02:58:02;2.53;;;1.10;;
7621;SDS011;3852;52.284;8.032;2022-09-16T03:00:29;2.03;;;1.27;;
7621;SDS011;3852;52.284;8.032;2022-09-16T03:02:57;2.43;;;1.20;;
7621;SDS011;3852;52.284;8.032;2022-09-16T03:05:27;3.17;;;1.13;;
7621;SDS011;3852;52.284;8.032;2022-09-16T03:07:53;2.27;;;1.07;;
7621;SDS011;3852;52.284;8.032;2022-09-16T03:10:21;2.80;;;1.40;;
7621;SDS011;3852;52.284;8.032;2022-09-16T03:15:53;2.37;;;1.00;;
7621;SDS011;3852;52.284;8.032;2022-09-16T03:18:40;1.23;;;1.20;;
7621;SDS011;3852;52.284;8.032;2022-09-16T03:27:37;2.43;;;1.00;;
7621;SDS011;3852;52.284;8.032;2022-09-16T03:30:16;1.60;;;1.10;;
7621;SDS011;3852;52.284;8.032;2022-09-16T03:32:48;2.00;;;1.23;;
7621;SDS011;3852;52.284;8.032;2022-09-16T03:35:32;1.87;;;1.10;;
7621;SDS011;3852;52.284;8.032;2022-09-16T03:38:06;2.67;;;1.13;;
7621;SDS011;3852;52.284;8.032;2022-09-16T03:40:32;2.63;;;1.23;;
7621;SDS011;3852;52.284;8.032;2022-09-16T03:42:59;2.20;;;1.10;;
7621;SDS011;3852;52.284;8.032;2022-09-16T03:45:25;1.87;;;1.10;;
7621;SDS011;3852;52.284;8.032;2022-09-16T03:47:51;1.80;;;1.40;;
7621;SDS011;3852;52.284;8.032;2022-09-16T03:50:18;2.03;;;1.10;;
7621;SDS011;3852;52.284;8.032;2022-09-16T03:52:44;2.30;;;1.00;;
7621;SDS011;3852;52.284;8.032;2022-09-16T03:55:13;2.53;;;0.97;;
7621;SDS011;3852;52.284;8.032;2022-09-16T03:57:40;1.63;;;1.00;;
7621;SDS011;3852;52.284;8.032;2022-09-16T04:00:06;1.87;;;1.00;;
7621;SDS011;3852;52.284;8.032;2022-09-16T04:02:33;3.07;;;1.00;;
7621;SDS011;3852;52.284;8.032;2022-09-16T04:05:02;3.10;;;1.00;;
7621;SDS011;3852;52.284;8.032;2022-09-16T04:07:28;3.13;;;0.97;;
7621;SDS011;3852;52.284;8.032;2022-09-16T04:09:57;3.53;;;1.30;;
7621;SDS011;3852;52.284;8.032;2022-09-16T04:12:23;2.47;;;1.20;;
7621;SDS011;3852;52.284;8.032;2022-09-16T04:14:49;1.07;;;1.03;;
7621;SDS011;3852;52.284;8.032;2022-09-16T04:17:17;1.10;;;1.00;;
7621;SDS011;3852;52.284;8.032;2022-09-16T04:19:43;2.90;;;1.20;;
7621;SDS011;3852;52.284;8.032;2022-09-16T04:22:09;4.97;;;1.20;;
7621;SDS011;3852;52.284;8.032;2022-09-16T04:24:34;1.33;;;1.20;;
7621;SDS011;3852;52.284;8.032;2022-09-16T04:27:00;2.07;;;1.10;;
7621;SDS011;3852;52.284;8.032;2022-09-16T04:29:26;6.23;;;1.50;;
7621;SDS011;3852;52.284;8.032;2022-09-16T04:31:52;3.13;;;1.90;;
7621;SDS011;3852;52.284;8.032;2022-09-16T04:34:19;2.10;;;1.47;;
7621;SDS011;3852;52.284;8.032;2022-09-16T04:36:44;1.47;;;1.27;;
7621;SDS011;3852;52.284;8.032;2022-09-16T04:39:10;2.33;;;1.67;;
7621;SDS011;3852;52.284;8.032;2022-09-16T04:41:37;5.73;;;1.70;;
7621;SDS011;3852;52.284;8.032;2022-09-16T04:44:03;2.37;;;1.57;;
7621;SDS011;3852;52.284;8.032;2022-09-16T04:46:32;3.40;;;1.90;;
7621;SDS011;3852;52.284;8.032;2022-09-16T04:48:58;4.50;;;1.90;;
7621;SDS011;3852;52.284;8.032;2022-09-16T04:51:25;4.00;;;1.80;;
7621;SDS011;3852;52.284;8.032;2022-09-16T04:53:55;5.10;;;2.00;;
7621;SDS011;3852;52.284;8.032;2022-09-16T04:56:23;3.37;;;2.03;;
7621;SDS011;3852;52.284;8.032;2022-09-16T04:58:54;2.73;;;2.00;;
7621;SDS011;3852;52.284;8.032;2022-09-16T05:01:30;5.33;;;2.50;;
7621;SDS011;3852;52.284;8.032;2022-09-16T05:04:00;2.73;;;2.00;;
7621;SDS011;3852;52.284;8.032;2022-09-16T05:06:29;3.33;;;2.30;;
7621;SDS011;3852;52.284;8.032;2022-09-16T05:08:58;4.37;;;2.33;;
7621;SDS011;3852;52.284;8.032;2022-09-16T05:11:26;3.23;;;2.23;;
7621;SDS011;3852;52.284;8.032;2022-09-16T05:13:57;4.30;;;2.30;;
7621;SDS011;3852;52.284;8.032;2022-09-16T05:16:29;4.10;;;2.43;;
7621;SDS011;3852;52.284;8.032;2022-09-16T05:18:57;5.17;;;2.60;;
7621;SDS011;3852;52.284;8.032;2022-09-16T05:21:25;5.93;;;2.60;;
7621;SDS011;3852;52.284;8.032;2022-09-16T05:23:52;4.17;;;2.83;;
7621;SDS011;3852;52.284;8.032;2022-09-16T05:26:23;4.27;;;2.90;;
7621;SDS011;3852;52.284;8.032;2022-09-16T05:28:51;6.23;;;3.10;;
7621;SDS011;3852;52.284;8.032;2022-09-16T05:31:19;6.50;;;2.90;;
7621;SDS011;3852;52.284;8.032;2022-09-16T05:36:26;4.73;;;3.40;;
7621;SDS011;3852;52.284;8.032;2022-09-16T05:38:53;5.40;;;2.50;;
7621;SDS011;3852;52.284;8.032;2022-09-16T05:41:20;5.63;;;2.73;;
7621;SDS011;3852;52.284;8.032;2022-09-16T05:43:46;4.73;;;2.67;;
7621;SDS011;3852;52.284;8.032;2022-09-16T05:46:17;5.10;;;2.63;;
7621;SDS011;3852;52.284;8.032;2022-09-16T05:48:45;2.83;;;2.57;;
7621;SDS011;3852;52.284;8.032;2022-09-16T05:51:12;4.93;;;3.03;;
7621;SDS011;3852;52.284;8.032;2022-09-16T05:53:44;5.83;;;2.87;;
7621;SDS011;3852;52.284;8.032;2022-09-16T05:56:11;6.80;;;3.30;;
7621;SDS011;3852;52.284;8.032;2022-09-16T05:58:40;5.23;;;3.87;;
7621;SDS011;3852;52.284;8.032;2022-09-16T06:01:07;6.53;;;3.70;;
7621;SDS011;3852;52.284;8.032;2022-09-16T06:03:37;6.20;;;3.67;;
7621;SDS011;3852;52.284;8.032;2022-09-16T06:06:27;4.40;;;3.50;;
7621;SDS011;3852;52.284;8.032;2022-09-16T06:08:56;4.20;;;3.60;;
7621;SDS011;3852;52.284;8.032;2022-09-16T06:11:25;6.67;;;3.90;;
7621;SDS011;3852;52.284;8.032;2022-09-16T06:14:01;5.00;;;3.87;;
7621;SDS011;3852;52.284;8.032;2022-09-16T06:16:28;6.50;;;3.87;;
7621;SDS011;3852;52.284;8.032;2022-09-16T06:18:58;6.27;;;3.97;;
7621;SDS011;3852;52.284;8.032;2022-09-16T06:21:26;6.27;;;4.13;;
7621;SDS011;3852;52.284;8.032;2022-09-16T06:23:53;6.10;;;3.90;;
7621;SDS011;3852;52.284;8.032;2022-09-16T06:26:21;6.37;;;3.60;;
7621;SDS011;3852;52.284;8.032;2022-09-16T06:28:49;4.30;;;3.83;;
7621;SDS011;3852;52.284;8.032;2022-09-16T06:31:17;3.83;;;3.33;;
7621;SDS011;3852;52.284;8.032;2022-09-16T06:33:51;5.73;;;3.10;;
7621;SDS011;3852;52.284;8.032;2022-09-16T06:36:19;6.10;;;3.07;;
7621;SDS011;3852;52.284;8.032;2022-09-16T06:38:47;3.60;;;3.10;;
7621;SDS011;3852;52.284;8.032;2022-09-16T06:41:15;7.23;;;2.80;;
7621;SDS011;3852;52.284;8.032;2022-09-16T06:43:42;3.37;;;2.57;;
7621;SDS011;3852;52.284;8.032;2022-09-16T06:46:15;7.27;;;2.73;;
7621;SDS011;3852;52.284;8.032;2022-09-16T06:48:44;3.00;;;2.37;;
7621;SDS011;3852;52.284;8.032;2022-09-16T06:51:30;4.30;;;2.87;;
7621;SDS011;3852;52.284;8.032;2022-09-16T06:54:01;4.57;;;2.30;;
7621;SDS011;3852;52.284;8.032;2022-09-16T06:56:32;7.37;;;2.10;;
7621;SDS011;3852;52.284;8.032;2022-09-16T06:59:00;2.17;;;2.07;;
7621;SDS011;3852;52.284;8.032;2022-09-16T07:01:29;3.20;;;1.87;;
7621;SDS011;3852;52.284;8.032;2022-09-16T07:03:56;4.73;;;2.37;;
7621;SDS011;3852;52.284;8.032;2022-09-16T07:06:23;3.87;;;1.90;;
7621;SDS011;3852;52.284;8.032;2022-09-16T07:08:53;3.37;;;1.80;;
7621;SDS011;3852;52.284;8.032;2022-09-16T07:11:20;2.70;;;1.67;;
7621;SDS011;3852;52.284;8.032;2022-09-16T07:13:47;4.20;;;1.87;;
7621;SDS011;3852;52.284;8.032;2022-09-16T07:16:15;5.93;;;1.83;;
7621;SDS011;3852;52.284;8.032;2022-09-16T07:18:44;3.23;;;1.90;;
7621;SDS011;3852;52.284;8.032;2022-09-16T07:23:41;4.03;;;1.80;;
7621;SDS011;3852;52.284;8.032;2022-09-16T07:28:40;2.33;;;1.40;;
7621;SDS011;3852;52.284;8.032;2022-09-16T07:31:09;3.67;;;1.50;;
7621;SDS011;3852;52.284;8.032;2022-09-16T07:33:38;5.53;;;1.40;;
7621;SDS011;3852;52.284;8.032;2022-09-16T07:36:06;3.57;;;1.30;;
7621;SDS011;3852;52.284;8.032;2022-09-16T07:38:36;2.90;;;1.40;;
7621;SDS011;3852;52.284;8.032;2022-09-16T07:41:06;4.20;;;1.50;;
7621;SDS011;3852;52.284;8.032;2022-09-16T07:43:43;3.97;;;1.63;;
7621;SDS011;3852;52.284;8.032;2022-09-16T07:46:10;3.53;;;1.20;;
7621;SDS011;3852;52.284;8.032;2022-09-16T07:48:41;4.03;;;1.30;;
7621;SDS011;3852;52.284;8.032;2022-09-16T07:51:10;3.53;;;1.33;;
7621;SDS011;3852;52.284;8.032;2022-09-16T07:53:45;3.20;;;1.27;;
7621;SDS011;3852;52.284;8.032;2022-09-16T07:56:13;4.23;;;1.63;;
7621;SDS011;3852;52.284;8.032;2022-09-16T07:58:42;1.93;;;1.20;;
7621;SDS011;3852;52.284;8.032;2022-09-16T08:01:11;4.53;;;1.40;;
7621;SDS011;3852;52.284;8.032;2022-09-16T08:03:39;2.97;;;1.30;;
7621;SDS011;3852;52.284;8.032;2022-09-16T08:06:08;4.33;;;1.53;;
7621;SDS011;3852;52.284;8.032;2022-09-16T08:08:45;6.23;;;1.30;;
7621;SDS011;3852;52.284;8.032;2022-09-16T08:11:13;2.57;;;1.20;;
7621;SDS011;3852;52.284;8.032;2022-09-16T08:13:39;5.27;;;1.27;;
7621;SDS011;3852;52.284;8.032;2022-09-16T08:16:09;4.13;;;1.10;;
7621;SDS011;3852;52.284;8.032;2022-09-16T08:18:37;6.13;;;1.50;;
7621;SDS011;3852;52.284;8.032;2022-09-16T08:21:05;3.10;;;1.30;;
7621;SDS011;3852;52.284;8.032;2022-09-16T08:23:33;4.50;;;1.10;;
7621;SDS011;3852;52.284;8.032;2022-09-16T08:26:02;4.70;;;1.20;;
7621;SDS011;3852;52.284;8.032;2022-09-16T08:28:30;6.73;;;1.07;;
7621;SDS011;3852;52.284;8.032;2022-09-16T08:30:59;3.67;;;1.10;;
7621;SDS011;3852;52.284;8.032;2022-09-16T08:33:26;4.23;;;1.10;;
7621;SDS011;3852;52.284;8.032;2022-09-16T08:35:59;5.57;;;1.40;;
7621;SDS011;3852;52.284;8.032;2022-09-16T08:38:33;5.03;;;1.47;;
7621;SDS011;3852;52.284;8.032;2022-09-16T08:46:52;4.70;;;1.40;;
7621;SDS011;3852;52.284;8.032;2022-09-16T08:52:12;5.10;;;1.37;;
7621;SDS011;3852;52.284;8.032;2022-09-16T08:54:57;8.40;;;1.50;;
7621;SDS011;3852;52.284;8.032;2022-09-16T08:57:28;5.03;;;1.30;;
7621;SDS011;3852;52.284;8.032;2022-09-16T09:00:00;5.27;;;1.40;;
7621;SDS011;3852;52.284;8.032;2022-09-16T09:02:51;4.63;;;1.30;;
7621;SDS011;3852;52.284;8.032;2022-09-16T09:08:36;4.33;;;1.67;;
7621;SDS011;3852;52.284;8.032;2022-09-16T09:17:01;7.53;;;1.57;;
7621;SDS011;3852;52.284;8.032;2022-09-16T09:20:04;4.27;;;1.27;;
7621;SDS011;3852;52.284;8.032;2022-09-16T09:30:43;3.93;;;1.40;;
7621;SDS011;3852;52.284;8.032;2022-09-16T09:42:52;6.37;;;1.70;;
7621;SDS011;3852;52.284;8.032;2022-09-16T09:45:37;5.70;;;1.43;;
7621;SDS011;3852;52.284;8.032;2022-09-16T09:48:37;4.57;;;1.53;;
7621;SDS011;3852;52.284;8.032;2022-09-16T09:51:23;3.80;;;1.30;;
7621;SDS011;3852;52.284;8.032;2022-09-16T09:56:49;5.53;;;1.30;;
7621;SDS011;3852;52.284;8.032;2022-09-16T10:01:56;5.90;;;1.57;;
7621;SDS011;3852;52.284;8.032;2022-09-16T10:04:26;3.67;;;1.40;;
7621;SDS011;3852;52.284;8.032;2022-09-16T10:06:59;2.37;;;1.33;;
7621;SDS011;3852;52.284;8.032;2022-09-16T10:09:24;3.27;;;1.33;;
7621;SDS011;3852;52.284;8.032;2022-09-16T10:11:52;4.37;;;1.30;;
7621;SDS011;3852;52.284;8.032;2022-09-16T10:14:23;6.57;;;1.40;;
7621;SDS011;3852;52.284;8.032;2022-09-16T10:16:55;2.67;;;1.03;;
7621;SDS011;3852;52.284;8.032;2022-09-16T10:19:26;4.90;;;1.30;;
7621;SDS011;3852;52.284;8.032;2022-09-16T10:21:54;5.20;;;1.23;;
7621;SDS011;3852;52.284;8.032;2022-09-16T10:24:38;5.47;;;1.20;;
7621;SDS011;3852;52.284;8.032;2022-09-16T10:27:19;2.73;;;1.10;;
7621;SDS011;3852;52.284;8.032;2022-09-16T10:35:32;5.63;;;1.50;;
7621;SDS011;3852;52.284;8.032;2022-09-16T10:38:03;3.70;;;1.40;;
7621;SDS011;3852;52.284;8.032;2022-09-16T10:40:50;6.77;;;1.30;;
7621;SDS011;3852;52.284;8.032;2022-09-16T10:43:22;3.30;;;1.20;;
7621;SDS011;3852;52.284;8.032;2022-09-16T10:45:50;6.70;;;1.17;;
7621;SDS011;3852;52.284;8.032;2022-09-16T10:48:18;4.77;;;1.37;;
7621;SDS011;3852;52.284;8.032;2022-09-16T10:50:52;6.77;;;1.37;;
7621;SDS011;3852;52.284;8.032;2022-09-16T10:56:04;1.17;;;1.07;;
7621;SDS011;3852;52.284;8.032;2022-09-16T10:58:41;4.03;;;1.10;;
7621;SDS011;3852;52.284;8.032;2022-09-16T11:03:55;2.97;;;1.17;;
7621;SDS011;3852;52.284;8.032;2022-09-16T11:09:44;3.57;;;1.00;;
7621;SDS011;3852;52.284;8.032;2022-09-16T11:16:07;4.77;;;1.10;;
7621;SDS011;3852;52.284;8.032;2022-09-16T11:18:56;3.47;;;1.37;;
7621;SDS011;3852;52.284;8.032;2022-09-16T11:24:44;1.90;;;0.93;;
7621;SDS011;3852;52.284;8.032;2022-09-16T11:27:32;5.73;;;1.23;;
7621;SDS011;3852;52.284;8.032;2022-09-16T11:30:31;3.07;;;1.10;;
7621;SDS011;3852;52.284;8.032;2022-09-16T11:33:15;5.57;;;1.40;;
7621;SDS011;3852;52.284;8.032;2022-09-16T11:36:01;5.00;;;1.23;;
7621;SDS011;3852;52.284;8.032;2022-09-16T11:39:18;2.33;;;1.07;;
7621;SDS011;3852;52.284;8.032;2022-09-16T11:48:24;2.20;;;1.03;;
7621;SDS011;3852;52.284;8.032;2022-09-16T11:56:49;5.60;;;1.20;;
7621;SDS011;3852;52.284;8.032;2022-09-16T11:59:41;3.13;;;1.20;;
7621;SDS011;3852;52.284;8.032;2022-09-16T12:05:16;6.50;;;1.33;;
7621;SDS011;3852;52.284;8.032;2022-09-16T12:13:43;4.10;;;1.40;;
7621;SDS011;3852;52.284;8.032;2022-09-16T12:16:18;3.03;;;1.10;;
7621;SDS011;3852;52.284;8.032;2022-09-16T12:18:55;3.70;;;1.20;;
7621;SDS011;3852;52.284;8.032;2022-09-16T12:21:34;3.47;;;1.07;;
7621;SDS011;3852;52.284;8.032;2022-09-16T12:24:29;3.67;;;1.20;;
7621;SDS011;3852;52.284;8.032;2022-09-16T12:32:45;5.17;;;0.93;;
7621;SDS011;3852;52.284;8.032;2022-09-16T12:35:30;2.87;;;1.30;;
7621;SDS011;3852;52.284;8.032;2022-09-16T12:38:23;5.87;;;1.30;;
7621;SDS011;3852;52.284;8.032;2022-09-16T13:00:19;2.10;;;1.00;;
7621;SDS011;3852;52.284;8.032;2022-09-16T13:02:59;4.57;;;1.40;;
7621;SDS011;3852;52.284;8.032;2022-09-16T13:05:42;3.90;;;1.20;;
7621;SDS011;3852;52.284;8.032;2022-09-16T13:08:20;5.50;;;1.20;;
7621;SDS011;3852;52.284;8.032;2022-09-16T13:13:34;4.97;;;1.33;;
7621;SDS011;3852;52.284;8.032;2022-09-16T13:16:12;8.33;;;1.67;;
7621;SDS011;3852;52.284;8.032;2022-09-16T13:21:30;2.50;;;1.20;;
7621;SDS011;3852;52.284;8.032;2022-09-16T13:24:11;6.03;;;1.30;;
7621;SDS011;3852;52.284;8.032;2022-09-16T13:26:55;5.23;;;1.20;;
7621;SDS011;3852;52.284;8.032;2022-09-16T13:29:29;3.50;;;1.30;;
7621;SDS011;3852;52.284;8.032;2022-09-16T13:32:23;5.30;;;1.70;;
7621;SDS011;3852;52.284;8.032;2022-09-16T13:35:43;3.47;;;1.20;;
7621;SDS011;3852;52.284;8.032;2022-09-16T13:40:39;2.90;;;1.33;;
7621;SDS011;3852;52.284;8.032;2022-09-16T13:43:26;4.43;;;1.33;;
7621;SDS011;3852;52.284;8.032;2022-09-16T13:45:59;4.53;;;1.40;;
7621;SDS011;3852;52.284;8.032;2022-09-16T13:48:32;4.53;;;1.43;;
7621;SDS011;3852;52.284;8.032;2022-09-16T13:51:06;4.73;;;1.20;;
7621;SDS011;3852;52.284;8.032;2022-09-16T13:53:44;5.43;;;1.53;;
7621;SDS011;3852;52.284;8.032;2022-09-16T13:58:43;5.33;;;1.10;;
7621;SDS011;3852;52.284;8.032;2022-09-16T14:04:52;2.00;;;0.90;;
7621;SDS011;3852;52.284;8.032;2022-09-16T14:13:18;1.73;;;0.80;;
7621;SDS011;3852;52.284;8.032;2022-09-16T14:15:47;2.60;;;1.30;;
7621;SDS011;3852;52.284;8.032;2022-09-16T14:18:18;3.37;;;1.20;;
7621;SDS011;3852;52.284;8.032;2022-09-16T14:21:02;2.97;;;1.20;;
7621;SDS011;3852;52.284;8.032;2022-09-16T14:23:39;2.63;;;1.20;;
7621;SDS011;3852;52.284;8.032;2022-09-16T14:26:08;4.37;;;1.10;;
7621;SDS011;3852;52.284;8.032;2022-09-16T14:28:43;2.17;;;0.97;;
7621;SDS011;3852;52.284;8.032;2022-09-16T14:31:13;3.57;;;1.13;;
7621;SDS011;3852;52.284;8.032;2022-09-16T14:33:51;2.40;;;1.10;;
7621;SDS011;3852;52.284;8.032;2022-09-16T14:36:25;3.40;;;0.97;;
7621;SDS011;3852;52.284;8.032;2022-09-16T14:38:56;5.90;;;1.40;;
7621;SDS011;3852;52.284;8.032;2022-09-16T14:44:08;2.53;;;1.20;;
7621;SDS011;3852;52.284;8.032;2022-09-16T14:46:45;2.50;;;1.20;;
7621;SDS011;3852;52.284;8.032;2022-09-16T14:49:41;5.30;;;1.10;;
7621;SDS011;3852;52.284;8.032;2022-09-16T14:52:19;3.87;;;1.10;;
7621;SDS011;3852;52.284;8.032;2022-09-16T14:54:48;4.07;;;1.20;;
7621;SDS011;3852;52.284;8.032;2022-09-16T14:57:19;1.47;;;1.00;;
7621;SDS011;3852;52.284;8.032;2022-09-16T14:59:54;1.60;;;1.00;;
7621;SDS011;3852;52.284;8.032;2022-09-16T15:02:27;6.47;;;1.23;;
7621;SDS011;3852;52.284;8.032;2022-09-16T15:05:07;3.07;;;1.20;;
7621;SDS011;3852;52.284;8.032;2022-09-16T15:07:55;3.53;;;1.10;;
7621;SDS011;3852;52.284;8.032;2022-09-16T15:10:44;3.70;;;1.30;;
7621;SDS011;3852;52.284;8.032;2022-09-16T15:13:16;3.50;;;1.10;;
7621;SDS011;3852;52.284;8.032;2022-09-16T15:15:48;4.63;;;1.00;;
7621;SDS011;3852;52.284;8.032;2022-09-16T15:18:28;2.60;;;1.00;;
7621;SDS011;3852;52.284;8.032;2022-09-16T15:21:07;3.07;;;1.00;;
7621;SDS011;3852;52.284;8.032;2022-09-16T15:23:34;3.13;;;1.10;;
7621;SDS011;3852;52.284;8.032;2022-09-16T15:26:24;2.70;;;1.00;;
7621;SDS011;3852;52.284;8.032;2022-09-16T15:28:52;3.43;;;1.03;;
7621;SDS011;3852;52.284;8.032;2022-09-16T15:31:35;4.40;;;1.10;;
7621;SDS011;3852;52.284;8.032;2022-09-16T15:36:55;5.13;;;1.47;;
7621;SDS011;3852;52.284;8.032;2022-09-16T15:39:29;4.07;;;1.70;;
7621;SDS011;3852;52.284;8.032;2022-09-16T15:42:08;3.77;;;1.37;;
7621;SDS011;3852;52.284;8.032;2022-09-16T15:44:50;4.37;;;1.60;;
7621;SDS011;3852;52.284;8.032;2022-09-16T15:49:45;4.93;;;1.37;;
7621;SDS011;3852;52.284;8.032;2022-09-16T15:52:14;3.50;;;1.20;;
7621;SDS011;3852;52.284;8.032;2022-09-16T15:57:34;4.13;;;1.40;;
7621;SDS011;3852;52.284;8.032;2022-09-16T16:00:07;5.07;;;1.77;;
7621;SDS011;3852;52.284;8.032;2022-09-16T16:05:26;8.93;;;1.40;;
7621;SDS011;3852;52.284;8.032;2022-09-16T16:08:04;6.43;;;1.90;;
7621;SDS011;3852;52.284;8.032;2022-09-16T16:10:30;7.40;;;1.70;;
7621;SDS011;3852;52.284;8.032;2022-09-16T16:13:00;6.03;;;1.77;;
7621;SDS011;3852;52.284;8.032;2022-09-16T16:15:30;8.30;;;1.80;;
7621;SDS011;3852;52.284;8.032;2022-09-16T16:17:59;3.27;;;1.40;;
7621;SDS011;3852;52.284;8.032;2022-09-16T16:20:29;3.80;;;1.20;;
7621;SDS011;3852;52.284;8.032;2022-09-16T16:22:59;2.63;;;1.20;;
7621;SDS011;3852;52.284;8.032;2022-09-16T16:25:25;3.23;;;1.20;;
7621;SDS011;3852;52.284;8.032;2022-09-16T16:27:51;2.53;;;1.10;;
7621;SDS011;3852;52.284;8.032;2022-09-16T16:30:17;3.57;;;1.20;;
7621;SDS011;3852;52.284;8.032;2022-09-16T16:32:43;4.03;;;1.50;;
7621;SDS011;3852;52.284;8.032;2022-09-16T16:35:10;5.40;;;1.33;;
7621;SDS011;3852;52.284;8.032;2022-09-16T16:37:36;6.37;;;1.60;;
7621;SDS011;3852;52.284;8.032;2022-09-16T16:40:03;6.00;;;1.40;;
7621;SDS011;3852;52.284;8.032;2022-09-16T16:42:30;6.33;;;1.53;;
7621;SDS011;3852;52.284;8.032;2022-09-16T16:44:56;4.47;;;1.50;;
7621;SDS011;3852;52.284;8.032;2022-09-16T16:47:22;4.93;;;1.63;;
7621;SDS011;3852;52.284;8.032;2022-09-16T16:49:48;2.97;;;1.50;;
7621;SDS011;3852;52.284;8.032;2022-09-16T16:52:15;6.77;;;2.17;;
7621;SDS011;3852;52.284;8.032;2022-09-16T16:54:41;7.00;;;1.57;;
7621;SDS011;3852;52.284;8.032;2022-09-16T16:57:08;7.67;;;1.77;;
7621;SDS011;3852;52.284;8.032;2022-09-16T16:59:34;5.13;;;1.60;;
7621;SDS011;3852;52.284;8.032;2022-09-16T17:02:00;7.80;;;1.90;;
7621;SDS011;3852;52.284;8.032;2022-09-16T17:04:28;9.07;;;1.93;;
7621;SDS011;3852;52.284;8.032;2022-09-16T17:06:54;7.00;;;2.00;;
7621;SDS011;3852;52.284;8.032;2022-09-16T17:09:21;10.20;;;1.53;;
7621;SDS011;3852;52.284;8.032;2022-09-16T17:11:57;11.23;;;2.33;;
7621;SDS011;3852;52.284;8.032;2022-09-16T17:14:25;10.03;;;1.87;;
7621;SDS011;3852;52.284;8.032;2022-09-16T17:16:53;6.13;;;1.90;;
7621;SDS011;3852;52.284;8.032;2022-09-16T17:19:21;7.07;;;2.10;;
7621;SDS011;3852;52.284;8.032;2022-09-16T17:21:48;6.17;;;1.97;;
7621;SDS011;3852;52.284;8.032;2022-09-16T17:24:15;6.33;;;2.33;;
7621;SDS011;3852;52.284;8.032;2022-09-16T17:26:42;6.33;;;2.03;;
7621;SDS011;3852;52.284;8.032;2022-09-16T17:29:08;6.93;;;1.87;;
7621;SDS011;3852;52.284;8.032;2022-09-16T17:31:35;9.50;;;2.10;;
7621;SDS011;3852;52.284;8.032;2022-09-16T17:34:06;6.50;;;2.00;;
7621;SDS011;3852;52.284;8.032;2022-09-16T17:36:37;8.50;;;2.30;;
7621;SDS011;3852;52.284;8.032;2022-09-16T17:39:09;6.33;;;2.13;;
7621;SDS011;3852;52.284;8.032;2022-09-16T17:41:41;10.77;;;2.03;;
7621;SDS011;3852;52.284;8.032;2022-09-16T17:44:07;6.47;;;2.10;;
7621;SDS011;3852;52.284;8.032;2022-09-16T17:46:38;7.60;;;1.77;;
7621;SDS011;3852;52.284;8.032;2022-09-16T17:49:07;7.23;;;1.57;;
7621;SDS011;3852;52.284;8.032;2022-09-16T17:51:41;6.43;;;1.90;;
7621;SDS011;3852;52.284;8.032;2022-09-16T17:54:07;6.77;;;1.70;;
7621;SDS011;3852;52.284;8.032;2022-09-16T17:56:34;5.77;;;1.70;;
7621;SDS011;3852;52.284;8.032;2022-09-16T17:59:00;6.03;;;1.50;;
7621;SDS011;3852;52.284;8.032;2022-09-16T18:01:26;5.97;;;1.50;;
7621;SDS011;3852;52.284;8.032;2022-09-16T18:03:53;6.90;;;1.43;;
7621;SDS011;3852;52.284;8.032;2022-09-16T18:06:21;3.57;;;1.40;;
7621;SDS011;3852;52.284;8.032;2022-09-16T18:08:52;4.07;;;1.40;;
7621;SDS011;3852;52.284;8.032;2022-09-16T18:11:19;6.47;;;1.70;;
7621;SDS011;3852;52.284;8.032;2022-09-16T18:13:52;4.87;;;1.30;;
7621;SDS011;3852;52.284;8.032;2022-09-16T18:16:22;4.70;;;1.37;;
7621;SDS011;3852;52.284;8.032;2022-09-16T18:18:51;8.17;;;2.50;;
7621;SDS011;3852;52.284;8.032;2022-09-16T18:21:20;4.00;;;1.67;;
7621;SDS011;3852;52.284;8.032;2022-09-16T18:23:50;5.07;;;1.33;;
7621;SDS011;3852;52.284;8.032;2022-09-16T18:26:21;4.00;;;1.33;;
7621;SDS011;3852;52.284;8.032;2022-09-16T18:28:48;3.87;;;1.20;;
7621;SDS011;3852;52.284;8.032;2022-09-16T18:31:16;2.67;;;1.20;;
7621;SDS011;3852;52.284;8.032;2022-09-16T18:33:44;2.30;;;1.00;;
7621;SDS011;3852;52.284;8.032;2022-09-16T18:36:12;5.27;;;1.30;;
7621;SDS011;3852;52.284;8.032;2022-09-16T18:38:40;3.93;;;1.40;;
7621;SDS011;3852;52.284;8.032;2022-09-16T18:41:14;3.60;;;1.30;;
7621;SDS011;3852;52.284;8.032;2022-09-16T18:43:42;3.77;;;1.10;;
7621;SDS011;3852;52.284;8.032;2022-09-16T18:46:15;3.30;;;1.50;;
7621;SDS011;3852;52.284;8.032;2022-09-16T18:48:43;4.03;;;1.30;;
7621;SDS011;3852;52.284;8.032;2022-09-16T18:51:24;4.53;;;1.27;;
7621;SDS011;3852;52.284;8.032;2022-09-16T18:54:00;2.57;;;1.20;;
7621;SDS011;3852;52.284;8.032;2022-09-16T18:56:29;6.27;;;1.30;;
7621;SDS011;3852;52.284;8.032;2022-09-16T18:59:01;3.70;;;1.20;;